Time;durP1;ratioP1;P1;durP2;ratioP2;P2;SDS_P1;SDS_P2;PMS_P1;PMS_P2;Temp;Humidity;BMP_temperature;BMP_pressure;BME280_temperature;BME280_humidity;BME280_pressure;Samples;Min_cycle;Max_cycle;Signal;HPM_P1;HPM_P2
2021/08/08 00:00:11;;;;;;;4.00;0.93;;;16.10;99.90;;;;;;5056368;28;20052;-76
2021/08/08 00:02:38;;;;;;;2.08;0.95;;;16.10;99.90;;;;;;5056216;28;20104;-75
2021/08/08 00:05:06;;;;;;;2.45;1.00;;;16.10;99.90;;;;;;5041889;28;20060;-76
2021/08/08 00:07:33;;;;;;;3.50;1.00;;;16.10;99.90;;;;;;5057691;28;20111;-76
2021/08/08 00:10:00;;;;;;;3.90;1.00;;;16.10;99.90;;;;;;5061001;28;20483;-78
2021/08/08 00:12:29;;;;;;;3.55;1.10;;;16.10;99.90;;;;;;5055003;28;20171;-75
2021/08/08 00:14:56;;;;;;;2.83;0.80;;;16.10;99.90;;;;;;5059205;28;20455;-77
2021/08/08 00:17:23;;;;;;;2.53;0.93;;;16.10;99.90;;;;;;5054638;28;20128;-77
2021/08/08 00:19:50;;;;;;;4.47;1.10;;;16.10;99.90;;;;;;5054109;28;20153;-74
2021/08/08 00:22:17;;;;;;;3.72;1.00;;;16.10;99.90;;;;;;5057161;28;20127;-77
2021/08/08 00:24:44;;;;;;;1.55;0.73;;;16.10;99.90;;;;;;5064217;28;20124;-76
2021/08/08 00:27:11;;;;;;;3.70;0.85;;;16.10;99.90;;;;;;5047519;28;20065;-75
2021/08/08 00:29:39;;;;;;;3.97;0.95;;;16.10;99.90;;;;;;5054446;28;20508;-74
2021/08/08 00:32:08;;;;;;;3.33;0.90;;;16.00;99.90;;;;;;5054413;28;20049;-76
2021/08/08 00:34:35;;;;;;;4.20;1.10;;;16.00;99.90;;;;;;5054442;28;20447;-75
2021/08/08 00:37:03;;;;;;;1.83;0.70;;;16.00;99.90;;;;;;5054319;28;20129;-75
2021/08/08 00:39:31;;;;;;;2.40;0.60;;;16.00;99.90;;;;;;5054635;28;20124;-74
2021/08/08 00:41:58;;;;;;;2.53;0.80;;;16.10;99.90;;;;;;5054646;28;20045;-74
2021/08/08 00:44:25;;;;;;;2.72;0.65;;;16.10;99.90;;;;;;5052739;28;20095;-78
2021/08/08 00:46:54;;;;;;;3.40;1.00;;;16.10;99.90;;;;;;5053701;28;20120;-76
2021/08/08 00:49:21;;;;;;;1.73;0.70;;;16.10;99.90;;;;;;5053866;28;20152;-73
2021/08/08 00:51:48;;;;;;;3.05;0.80;;;16.10;99.90;;;;;;5053430;28;20079;-75
2021/08/08 00:54:15;;;;;;;2.85;0.90;;;16.10;99.90;;;;;;5053589;28;20574;-73
2021/08/08 00:56:42;;;;;;;3.53;0.75;;;16.00;99.90;;;;;;5057376;28;20128;-75
2021/08/08 00:59:09;;;;;;;2.33;0.90;;;16.00;99.90;;;;;;5061485;28;20133;-76
2021/08/08 01:01:43;;;;;;;3.50;1.10;;;16.00;99.90;;;;;;5053468;28;20131;-76
2021/08/08 01:04:15;;;;;;;2.15;0.80;;;16.00;99.90;;;;;;5038151;28;20490;-75
2021/08/08 01:06:48;;;;;;;2.05;0.90;;;15.90;99.90;;;;;;5053172;28;20044;-76
2021/08/08 01:09:15;;;;;;;2.10;0.90;;;15.90;99.90;;;;;;5053169;28;20108;-74
2021/08/08 01:11:44;;;;;;;2.65;0.85;;;15.90;99.90;;;;;;5052951;28;20647;-73
2021/08/08 01:14:12;;;;;;;2.95;0.80;;;15.90;99.90;;;;;;5053073;28;20047;-75
2021/08/08 01:16:40;;;;;;;5.20;0.90;;;15.90;99.90;;;;;;5053196;28;20087;-75
2021/08/08 01:19:12;;;;;;;3.25;1.08;;;15.90;99.90;;;;;;5052592;28;20044;-75
2021/08/08 01:21:40;;;;;;;1.67;0.77;;;15.90;99.90;;;;;;5052894;28;20147;-75
2021/08/08 01:24:09;;;;;;;3.88;1.05;;;15.80;99.90;;;;;;5053007;28;20684;-74
2021/08/08 01:26:37;;;;;;;2.33;1.00;;;15.80;99.90;;;;;;5052738;28;20090;-75
2021/08/08 01:29:04;;;;;;;2.65;0.70;;;15.80;99.90;;;;;;5053055;28;20132;-76
2021/08/08 01:31:31;;;;;;;2.20;0.77;;;15.80;99.90;;;;;;5052909;28;20047;-75
2021/08/08 01:33:58;;;;;;;2.13;0.82;;;15.80;99.90;;;;;;5052780;28;20498;-75
2021/08/08 01:36:26;;;;;;;3.10;0.90;;;15.80;99.90;;;;;;5052596;28;20582;-74
2021/08/08 01:38:59;;;;;;;2.22;0.80;;;15.80;99.90;;;;;;5053637;28;20049;-73
2021/08/08 01:41:32;;;;;;;3.58;1.00;;;15.90;99.90;;;;;;5057339;28;20128;-76
2021/08/08 01:44:02;;;;;;;2.55;0.80;;;15.80;99.90;;;;;;5054991;28;20056;-77
2021/08/08 01:46:32;;;;;;;2.95;0.82;;;15.80;99.90;;;;;;5054346;28;20056;-74
2021/08/08 01:49:03;;;;;;;2.47;0.98;;;15.80;99.90;;;;;;5053723;28;20059;-76
2021/08/08 01:51:30;;;;;;;3.50;1.00;;;15.80;99.90;;;;;;5053463;28;20135;-74
2021/08/08 01:53:58;;;;;;;3.17;0.90;;;15.80;99.90;;;;;;5052940;28;20596;-76
2021/08/08 01:56:25;;;;;;;3.00;0.98;;;15.80;99.90;;;;;;5052971;28;20041;-77
2021/08/08 01:58:54;;;;;;;1.85;0.88;;;15.80;99.90;;;;;;5052807;28;20056;-75
2021/08/08 02:01:21;;;;;;;2.20;0.90;;;15.80;99.90;;;;;;5052722;28;20124;-75
2021/08/08 02:03:48;;;;;;;2.38;0.70;;;15.80;99.90;;;;;;5052588;28;20562;-77
2021/08/08 02:06:15;;;;;;;2.00;0.80;;;15.80;99.90;;;;;;5052032;28;20043;-74
2021/08/08 02:08:42;;;;;;;1.90;0.80;;;15.80;99.90;;;;;;5052979;28;20116;-76
2021/08/08 02:11:09;;;;;;;2.42;0.90;;;15.90;99.90;;;;;;5052601;28;20041;-75
2021/08/08 02:13:36;;;;;;;6.05;1.20;;;15.80;99.90;;;;;;5052702;28;20116;-76
2021/08/08 02:16:05;;;;;;;3.10;0.90;;;15.90;99.90;;;;;;5052603;28;20406;-74
2021/08/08 02:18:32;;;;;;;2.38;1.00;;;15.90;99.90;;;;;;5052335;28;20051;-77
2021/08/08 02:20:59;;;;;;;2.08;0.80;;;15.90;99.90;;;;;;5052312;28;20053;-77
2021/08/08 02:23:26;;;;;;;3.22;0.93;;;15.90;99.90;;;;;;5052263;28;20497;-74
2021/08/08 02:25:53;;;;;;;2.47;0.80;;;15.90;99.90;;;;;;5052009;28;20510;-76
2021/08/08 02:28:20;;;;;;;2.42;0.90;;;15.90;99.90;;;;;;5052245;28;20549;-74
2021/08/08 02:30:47;;;;;;;2.08;0.90;;;15.90;99.90;;;;;;5054144;28;20132;-76
2021/08/08 02:33:15;;;;;;;3.05;0.90;;;15.90;99.90;;;;;;5055919;28;20048;-77
2021/08/08 02:35:42;;;;;;;3.10;0.82;;;15.80;99.90;;;;;;5056412;28;20059;-77
2021/08/08 02:38:10;;;;;;;3.97;1.00;;;15.80;99.90;;;;;;5056493;28;20477;-77
2021/08/08 02:40:37;;;;;;;2.35;1.00;;;15.80;99.90;;;;;;5056018;28;20147;-76
2021/08/08 02:43:04;;;;;;;1.98;0.90;;;15.80;99.90;;;;;;5039941;28;20047;-76
2021/08/08 02:45:31;;;;;;;3.80;1.00;;;15.80;99.90;;;;;;5067486;28;20119;-77
2021/08/08 02:47:58;;;;;;;2.33;0.98;;;15.80;99.90;;;;;;5058017;28;20264;-76
2021/08/08 02:50:26;;;;;;;3.97;1.13;;;15.80;99.90;;;;;;5055807;28;20135;-77
2021/08/08 02:52:54;;;;;;;3.92;1.10;;;15.80;99.90;;;;;;5055625;28;20045;-75
2021/08/08 02:55:22;;;;;;;3.67;0.90;;;15.80;99.90;;;;;;5055747;28;20037;-74
2021/08/08 02:57:49;;;;;;;4.00;1.02;;;15.80;99.90;;;;;;5056829;28;20140;-76
2021/08/08 03:00:16;;;;;;;2.55;0.85;;;15.70;99.90;;;;;;5056404;28;20128;-76
2021/08/08 03:02:43;;;;;;;2.05;0.95;;;15.70;99.90;;;;;;5054892;28;20291;-77
2021/08/08 03:05:11;;;;;;;3.05;0.93;;;15.70;99.90;;;;;;5053568;28;20397;-75
2021/08/08 03:07:40;;;;;;;5.97;1.00;;;15.60;99.90;;;;;;5056381;28;20041;-74
2021/08/08 03:10:10;;;;;;;1.98;0.90;;;15.60;99.90;;;;;;5060973;28;20080;-76
2021/08/08 03:12:37;;;;;;;3.00;0.90;;;15.60;99.90;;;;;;5053000;28;20045;-76
2021/08/08 03:15:05;;;;;;;3.78;1.40;;;15.60;99.90;;;;;;5037008;28;20478;-74
2021/08/08 03:17:32;;;;;;;2.58;0.90;;;15.60;99.90;;;;;;5054212;28;20120;-76
2021/08/08 03:19:59;;;;;;;4.95;1.08;;;15.60;99.90;;;;;;5053101;28;20077;-75
2021/08/08 03:22:27;;;;;;;2.83;0.88;;;15.60;99.90;;;;;;5052988;28;20048;-77
2021/08/08 03:24:55;;;;;;;2.75;0.80;;;15.60;99.90;;;;;;5052768;28;20041;-75
2021/08/08 03:27:22;;;;;;;5.10;0.90;;;15.60;99.90;;;;;;5052910;28;20550;-75
2021/08/08 03:29:49;;;;;;;2.88;0.90;;;15.60;99.90;;;;;;5053064;28;20471;-76
2021/08/08 03:32:16;;;;;;;4.82;1.05;;;15.60;99.90;;;;;;5053027;28;20044;-74
2021/08/08 03:34:43;;;;;;;2.67;0.90;;;15.60;99.90;;;;;;5052465;28;20044;-75
2021/08/08 03:37:10;;;;;;;2.78;0.85;;;15.60;99.90;;;;;;5052546;28;20056;-76
2021/08/08 03:39:37;;;;;;;2.92;0.90;;;15.60;99.90;;;;;;5052604;28;20045;-75
2021/08/08 03:42:07;;;;;;;3.20;0.80;;;15.60;99.90;;;;;;5052111;28;20133;-75
2021/08/08 03:44:34;;;;;;;2.35;0.80;;;15.60;99.90;;;;;;5052448;28;20052;-75
2021/08/08 03:47:01;;;;;;;3.17;0.80;;;15.60;99.90;;;;;;5052395;28;20489;-76
2021/08/08 03:49:28;;;;;;;2.92;0.90;;;15.50;99.90;;;;;;5052716;28;20132;-76
2021/08/08 03:51:55;;;;;;;2.83;0.80;;;15.50;99.90;;;;;;5052038;28;20049;-77
2021/08/08 03:54:22;;;;;;;2.17;0.70;;;15.50;99.90;;;;;;5052220;28;20406;-75
2021/08/08 03:56:49;;;;;;;2.30;0.80;;;15.50;99.90;;;;;;5053243;28;20135;-77
2021/08/08 03:59:17;;;;;;;2.70;1.20;;;15.50;99.90;;;;;;5052803;28;20045;-76
2021/08/08 04:01:45;;;;;;;4.18;1.20;;;15.50;99.90;;;;;;5052378;28;20060;-75
2021/08/08 04:04:12;;;;;;;2.35;0.93;;;15.50;99.90;;;;;;5054283;28;20081;-75
2021/08/08 04:06:39;;;;;;;3.00;1.00;;;15.50;99.90;;;;;;5053918;28;20139;-76
2021/08/08 04:09:06;;;;;;;2.20;0.80;;;15.50;99.90;;;;;;5054635;28;20422;-73
2021/08/08 04:11:33;;;;;;;1.95;0.80;;;15.50;99.90;;;;;;5054233;28;20049;-74
2021/08/08 04:14:00;;;;;;;2.42;0.70;;;15.50;99.90;;;;;;5054375;28;20582;-76
2021/08/08 04:16:28;;;;;;;3.65;0.85;;;15.50;99.90;;;;;;5054278;28;20049;-76
2021/08/08 04:18:55;;;;;;;3.15;1.00;;;15.50;99.90;;;;;;5054047;28;20136;-76
2021/08/08 04:21:22;;;;;;;2.90;0.73;;;15.60;99.90;;;;;;5054646;28;20136;-75
2021/08/08 04:23:50;;;;;;;2.78;0.80;;;15.50;99.90;;;;;;5054250;28;20140;-76
2021/08/08 04:26:17;;;;;;;2.75;0.90;;;15.50;99.90;;;;;;5054429;28;20121;-75
2021/08/08 04:28:44;;;;;;;1.77;0.93;;;15.60;99.90;;;;;;5053889;28;20462;-76
2021/08/08 04:31:11;;;;;;;2.90;0.88;;;15.60;99.90;;;;;;5054258;28;20081;-78
2021/08/08 04:33:40;;;;;;;2.10;0.65;;;15.60;99.90;;;;;;5053705;28;20116;-74
2021/08/08 04:36:07;;;;;;;3.13;0.80;;;15.70;99.90;;;;;;5053542;28;20137;-75
2021/08/08 04:38:35;;;;;;;1.52;0.65;;;15.70;99.90;;;;;;5054099;28;20124;-76
2021/08/08 04:41:02;;;;;;;2.50;0.70;;;15.60;99.90;;;;;;5053981;28;20574;-75
2021/08/08 04:43:29;;;;;;;2.40;0.60;;;15.60;99.90;;;;;;5053971;28;20120;-75
2021/08/08 04:45:56;;;;;;;2.60;0.80;;;15.60;99.90;;;;;;5053286;28;20501;-75
2021/08/08 04:48:23;;;;;;;2.47;0.80;;;15.60;99.90;;;;;;5053474;28;20045;-76
2021/08/08 04:50:52;;;;;;;2.22;0.70;;;15.50;99.90;;;;;;5052984;28;20055;-76
2021/08/08 04:53:19;;;;;;;1.80;0.77;;;15.50;99.90;;;;;;5053018;28;20124;-76
2021/08/08 04:55:47;;;;;;;3.70;0.90;;;15.60;99.90;;;;;;5054234;28;20077;-76
2021/08/08 04:58:15;;;;;;;4.57;0.80;;;15.50;99.90;;;;;;5053516;28;20104;-78
2021/08/08 05:00:42;;;;;;;2.42;0.90;;;15.50;99.90;;;;;;5054279;28;20049;-77
2021/08/08 05:03:09;;;;;;;3.13;0.90;;;15.50;99.90;;;;;;5054963;28;20128;-74
2021/08/08 05:05:36;;;;;;;1.73;0.80;;;15.50;99.90;;;;;;5043696;28;20137;-75
2021/08/08 05:08:05;;;;;;;2.00;0.68;;;15.30;99.90;;;;;;5054737;28;20495;-75
2021/08/08 05:10:32;;;;;;;2.10;0.80;;;15.30;99.90;;;;;;5050079;28;20053;-75
2021/08/08 05:12:59;;;;;;;2.60;0.80;;;15.40;99.90;;;;;;5058618;28;20131;-76
2021/08/08 05:15:26;;;;;;;1.95;0.70;;;15.40;99.90;;;;;;5052670;28;20135;-75
2021/08/08 05:17:53;;;;;;;2.30;0.85;;;15.40;99.90;;;;;;5050517;28;20049;-76
2021/08/08 05:20:20;;;;;;;1.52;0.60;;;15.50;99.90;;;;;;5056271;28;20080;-77
2021/08/08 05:22:47;;;;;;;2.58;0.70;;;15.40;99.90;;;;;;5038569;28;20193;-74
2021/08/08 05:25:16;;;;;;;1.80;0.70;;;15.50;99.90;;;;;;5053448;28;20156;-75
2021/08/08 05:27:43;;;;;;;2.33;0.80;;;15.50;99.90;;;;;;5052770;28;20502;-77
2021/08/08 05:30:12;;;;;;;2.70;0.80;;;15.50;99.90;;;;;;5053241;28;20132;-76
2021/08/08 05:32:39;;;;;;;2.08;0.70;;;15.60;99.90;;;;;;5053347;28;20124;-78
2021/08/08 05:35:08;;;;;;;3.95;0.65;;;15.70;99.90;;;;;;5052152;28;20088;-74
2021/08/08 05:37:35;;;;;;;1.65;0.60;;;15.70;99.90;;;;;;5049441;28;20487;-77
2021/08/08 05:40:07;;;;;;;1.92;0.70;;;15.70;99.90;;;;;;5052183;28;20051;-78
2021/08/08 05:42:36;;;;;;;3.20;0.70;;;15.80;99.90;;;;;;5051727;28;20056;-75
2021/08/08 05:45:05;;;;;;;2.40;0.80;;;15.80;99.90;;;;;;5052409;28;20090;-78
2021/08/08 05:47:32;;;;;;;2.63;0.63;;;15.80;99.90;;;;;;5052988;28;20052;-77
2021/08/08 05:49:59;;;;;;;2.78;0.90;;;15.90;99.90;;;;;;5069452;28;20135;-77
2021/08/08 05:52:26;;;;;;;1.42;0.60;;;15.90;99.90;;;;;;5053962;28;20049;-75
2021/08/08 05:54:53;;;;;;;2.03;0.77;;;16.00;99.90;;;;;;5053748;28;20076;-77
2021/08/08 05:57:20;;;;;;;1.67;0.60;;;16.00;99.90;;;;;;5058530;28;20096;-76
2021/08/08 05:59:49;;;;;;;1.70;0.70;;;16.10;99.90;;;;;;5058561;28;20124;-76
2021/08/08 06:02:16;;;;;;;3.03;0.50;;;16.10;99.90;;;;;;5057068;28;20128;-74
2021/08/08 06:04:43;;;;;;;1.90;0.57;;;16.20;99.90;;;;;;5055441;28;20137;-77
2021/08/08 06:07:10;;;;;;;2.75;0.90;;;16.30;99.90;;;;;;5058150;28;20147;-77
2021/08/08 06:09:37;;;;;;;1.55;0.60;;;16.30;99.90;;;;;;5063207;28;20105;-76
2021/08/08 06:12:07;;;;;;;3.95;0.77;;;16.40;99.90;;;;;;5059167;28;20108;-75
2021/08/08 06:14:34;;;;;;;2.92;0.80;;;16.40;99.90;;;;;;5061720;28;20060;-76
2021/08/08 06:17:03;;;;;;;2.80;0.60;;;16.50;99.90;;;;;;5047261;28;20136;-76
2021/08/08 06:19:30;;;;;;;1.67;0.60;;;16.50;99.90;;;;;;5053222;28;20140;-77
2021/08/08 06:21:57;;;;;;;3.65;0.85;;;16.50;99.90;;;;;;5059429;28;20049;-77
2021/08/08 06:24:24;;;;;;;1.48;0.50;;;16.60;99.90;;;;;;5059094;28;20120;-76
2021/08/08 06:26:52;;;;;;;1.67;0.60;;;16.60;99.90;;;;;;5056950;28;20059;-79
2021/08/08 06:29:19;;;;;;;1.40;0.60;;;16.60;99.90;;;;;;5056041;28;20399;-78
2021/08/08 06:31:46;;;;;;;2.58;0.52;;;16.70;99.90;;;;;;5054907;28;20051;-77
2021/08/08 06:34:15;;;;;;;2.58;0.52;;;16.70;99.90;;;;;;5055575;28;21008;-75
2021/08/08 06:36:43;;;;;;;2.15;0.60;;;16.70;99.90;;;;;;5050818;28;20052;-79
2021/08/08 06:39:10;;;;;;;2.83;0.52;;;16.70;99.90;;;;;;5055049;28;20081;-80
2021/08/08 06:41:37;;;;;;;2.00;0.63;;;16.80;99.90;;;;;;5045378;28;20476;-78
2021/08/08 06:44:05;;;;;;;2.47;0.70;;;16.80;99.90;;;;;;5052867;28;20128;-80
2021/08/08 06:46:32;;;;;;;2.17;0.60;;;16.80;99.80;;;;;;5039331;28;20051;-78
2021/08/08 06:48:59;;;;;;;1.48;0.52;;;16.90;99.90;;;;;;5047058;28;20045;-79
2021/08/08 06:51:27;;;;;;;1.75;0.60;;;16.90;99.90;;;;;;5055779;28;20049;-78
2021/08/08 06:53:55;;;;;;;1.60;0.50;;;16.90;99.80;;;;;;5055457;28;20132;-77
2021/08/08 06:56:22;;;;;;;1.25;0.50;;;16.90;99.70;;;;;;5052121;28;20051;-77
2021/08/08 06:58:50;;;;;;;1.38;0.50;;;17.00;99.60;;;;;;5051393;28;20132;-78
2021/08/08 07:01:18;;;;;;;1.73;0.65;;;17.00;99.50;;;;;;5054339;28;20123;-79
2021/08/08 07:03:45;;;;;;;1.45;0.60;;;17.10;99.40;;;;;;5053140;28;20137;-77
2021/08/08 07:06:12;;;;;;;1.48;0.60;;;17.10;99.40;;;;;;5054066;28;20080;-78
2021/08/08 07:08:40;;;;;;;2.45;0.60;;;17.10;99.40;;;;;;5050370;28;20128;-81
2021/08/08 07:11:07;;;;;;;1.92;0.68;;;17.20;99.10;;;;;;5055823;28;20121;-80
2021/08/08 07:13:34;;;;;;;2.67;0.68;;;17.30;99.20;;;;;;5055747;28;20271;-80
2021/08/08 07:16:01;;;;;;;2.25;0.60;;;17.30;99.10;;;;;;5055249;28;20041;-79
2021/08/08 07:18:28;;;;;;;1.30;0.50;;;17.30;99.20;;;;;;5055365;28;20131;-80
2021/08/08 07:20:55;;;;;;;2.30;0.70;;;17.40;99.30;;;;;;5055464;28;20148;-79
2021/08/08 07:23:22;;;;;;;4.70;0.85;;;17.50;99.40;;;;;;5055909;28;20131;-77
2021/08/08 07:25:51;;;;;;;2.15;0.60;;;17.50;99.10;;;;;;5055775;28;20398;-78
2021/08/08 07:28:18;;;;;;;2.90;0.65;;;17.60;99.30;;;;;;5055471;28;20049;-76
2021/08/08 07:30:45;;;;;;;1.75;0.98;;;17.60;98.40;;;;;;5055655;28;20136;-74
2021/08/08 07:33:12;;;;;;;1.95;0.60;;;17.70;98.50;;;;;;5054986;28;20044;-75
2021/08/08 07:35:40;;;;;;;2.88;0.90;;;17.80;98.60;;;;;;5055419;28;20056;-79
2021/08/08 07:38:08;;;;;;;2.20;1.05;;;18.00;98.70;;;;;;5055323;28;20081;-80
2021/08/08 07:40:35;;;;;;;1.20;0.50;;;18.10;98.40;;;;;;5051063;28;20056;-77
2021/08/08 07:43:05;;;;;;;1.90;0.63;;;18.20;98.10;;;;;;5047789;28;20045;-81
2021/08/08 07:45:32;;;;;;;3.20;0.70;;;18.20;97.60;;;;;;5055482;28;20041;-79
2021/08/08 07:47:59;;;;;;;3.47;0.77;;;18.30;97.60;;;;;;5054588;28;20183;-78
2021/08/08 07:50:26;;;;;;;1.50;0.50;;;18.30;97.70;;;;;;5055222;28;20048;-81
2021/08/08 07:52:53;;;;;;;2.20;0.60;;;18.40;97.30;;;;;;5049600;28;20555;-80
2021/08/08 07:55:23;;;;;;;1.95;0.60;;;18.40;97.30;;;;;;5054387;28;20127;-79
2021/08/08 07:57:50;;;;;;;2.47;0.80;;;18.50;97.40;;;;;;5054979;28;20041;-81
2021/08/08 08:00:19;;;;;;;2.17;0.70;;;18.40;96.60;;;;;;5053887;28;20087;-78
2021/08/08 08:02:47;;;;;;;3.85;0.75;;;18.40;96.80;;;;;;5054819;28;20118;-79
2021/08/08 08:05:15;;;;;;;4.10;0.70;;;18.40;96.70;;;;;;5054064;28;20719;-77
2021/08/08 08:07:42;;;;;;;2.83;0.60;;;18.40;96.60;;;;;;5053140;28;20051;-78
2021/08/08 08:10:10;;;;;;;2.40;0.70;;;18.40;96.60;;;;;;5043241;28;20128;-80
2021/08/08 08:12:38;;;;;;;3.22;0.70;;;18.40;96.90;;;;;;5051123;28;20120;-77
2021/08/08 08:15:07;;;;;;;3.10;0.88;;;18.50;97.10;;;;;;5036060;28;20128;-80
2021/08/08 08:17:35;;;;;;;3.03;0.85;;;18.50;97.00;;;;;;5034579;28;20132;-81
2021/08/08 08:20:03;;;;;;;2.15;0.70;;;18.50;96.50;;;;;;5034832;28;20148;-81
2021/08/08 08:22:30;;;;;;;2.00;0.80;;;18.50;95.80;;;;;;5042920;28;20194;-78
2021/08/08 08:24:57;;;;;;;3.90;0.82;;;18.60;96.30;;;;;;5053681;28;20125;-80
2021/08/08 08:27:24;;;;;;;1.60;0.60;;;18.60;96.00;;;;;;5052796;28;20139;-80
2021/08/08 08:29:51;;;;;;;2.15;0.80;;;18.70;96.80;;;;;;5052622;28;20570;-81
2021/08/08 08:32:18;;;;;;;3.17;0.98;;;18.70;96.60;;;;;;5053547;28;20144;-83
2021/08/08 08:34:47;;;;;;;2.45;0.80;;;18.90;96.30;;;;;;5056740;28;20525;-86
2021/08/08 08:37:14;;;;;;;1.85;0.70;;;18.90;95.00;;;;;;5057194;28;20518;-87
2021/08/08 08:39:41;;;;;;;2.55;0.73;;;19.00;94.50;;;;;;5038847;28;20060;-87
2021/08/08 08:42:10;;;;;;;3.58;0.80;;;18.90;95.20;;;;;;5036312;28;20136;-90
2021/08/08 08:44:37;;;;;;;3.30;1.02;;;19.00;95.20;;;;;;5037626;28;20168;-88
2021/08/08 08:47:07;;;;;;;3.85;0.80;;;19.00;95.40;;;;;;5051477;28;20402;-85
2021/08/08 08:49:36;;;;;;;3.30;0.82;;;19.00;95.00;;;;;;5054297;28;20055;-82
2021/08/08 08:52:08;;;;;;;4.78;0.90;;;19.10;94.60;;;;;;5054223;28;20052;-80
2021/08/08 08:54:36;;;;;;;3.00;0.90;;;19.10;94.20;;;;;;5054301;28;20127;-83
2021/08/08 08:57:06;;;;;;;3.25;0.70;;;19.20;93.90;;;;;;5055119;28;20136;-83
2021/08/08 08:59:33;;;;;;;2.47;0.80;;;19.20;94.10;;;;;;5055143;28;20069;-89
2021/08/08 09:02:00;;;;;;;3.20;0.82;;;19.30;93.80;;;;;;5046717;28;20057;-81
2021/08/08 09:04:27;;;;;;;2.97;0.80;;;19.30;93.00;;;;;;5039084;28;20049;-80
2021/08/08 09:06:55;;;;;;;2.13;0.80;;;19.40;92.90;;;;;;5054598;28;20068;-87
2021/08/08 09:09:23;;;;;;;2.72;0.80;;;19.50;92.60;;;;;;5053795;28;20131;-79
2021/08/08 09:11:52;;;;;;;3.55;0.95;;;19.50;93.00;;;;;;5053035;28;20128;-77
2021/08/08 09:14:19;;;;;;;3.92;0.90;;;19.60;92.10;;;;;;5054100;28;20057;-80
2021/08/08 09:16:52;;;;;;;2.50;0.80;;;19.70;91.70;;;;;;5054615;28;20126;-90
2021/08/08 09:19:22;;;;;;;2.38;0.80;;;19.80;91.40;;;;;;5053602;28;20042;-83
2021/08/08 09:21:49;;;;;;;2.90;0.80;;;19.90;91.20;;;;;;5043483;28;20113;-88
2021/08/08 09:24:27;;;;;;;3.90;1.00;;;20.00;91.20;;;;;;5046805;28;20407;-83
2021/08/08 09:27:07;;;;;;;3.60;0.93;;;20.10;90.80;;;;;;5047144;28;20092;-85
2021/08/08 09:29:35;;;;;;;2.75;0.88;;;20.20;90.70;;;;;;5043391;28;20415;-83
2021/08/08 09:32:04;;;;;;;1.80;0.75;;;20.20;90.30;;;;;;5060946;28;20072;-81
2021/08/08 09:34:34;;;;;;;2.58;0.85;;;20.20;90.70;;;;;;5054573;28;20116;-86
2021/08/08 09:37:04;;;;;;;2.33;0.73;;;20.20;90.60;;;;;;5053609;28;20136;-86
2021/08/08 09:39:35;;;;;;;2.40;0.70;;;20.30;90.30;;;;;;5046960;28;20045;-85
2021/08/08 09:42:14;;;;;;;3.30;0.80;;;20.30;90.40;;;;;;5050377;28;20136;-80
2021/08/08 09:44:53;;;;;;;2.33;0.80;;;20.40;90.50;;;;;;5046786;28;20052;-82
2021/08/08 09:47:21;;;;;;;3.17;0.88;;;20.40;90.20;;;;;;5052909;28;20049;-84
2021/08/08 09:49:59;;;;;;;2.20;0.73;;;20.50;89.70;;;;;;5053199;28;20041;-82
2021/08/08 09:52:27;;;;;;;1.88;0.60;;;20.60;90.10;;;;;;5054612;28;20049;-83
2021/08/08 09:54:55;;;;;;;4.50;0.85;;;20.70;90.30;;;;;;5053915;28;20403;-77
2021/08/08 09:57:22;;;;;;;3.13;0.80;;;20.70;87.00;;;;;;5052765;28;20055;-80
2021/08/08 09:59:52;;;;;;;2.63;0.80;;;20.80;85.70;;;;;;5052471;28;20056;-80
2021/08/08 10:02:21;;;;;;;3.15;0.85;;;20.80;86.70;;;;;;5052913;28;20148;-81
2021/08/08 10:04:49;;;;;;;2.78;0.80;;;20.80;85.80;;;;;;5053033;28;20128;-79
2021/08/08 10:07:17;;;;;;;2.53;0.80;;;20.90;82.70;;;;;;5052606;28;20051;-79
2021/08/08 10:09:46;;;;;;;2.33;0.70;;;21.00;82.50;;;;;;5052846;28;20052;-81
2021/08/08 10:12:31;;;;;;;3.50;1.10;;;21.00;83.70;;;;;;5053158;28;20067;-79
2021/08/08 10:15:00;;;;;;;2.75;1.00;;;21.10;81.60;;;;;;5054063;28;20045;-80
2021/08/08 10:17:28;;;;;;;3.13;0.80;;;21.10;81.70;;;;;;5054670;28;20076;-80
2021/08/08 10:19:56;;;;;;;2.92;0.88;;;21.20;80.70;;;;;;5053169;28;20556;-80
2021/08/08 10:22:25;;;;;;;2.10;0.80;;;21.10;78.90;;;;;;5053535;28;20585;-80
2021/08/08 10:24:56;;;;;;;3.28;0.98;;;21.10;78.30;;;;;;5054421;28;20139;-77
2021/08/08 10:27:25;;;;;;;2.45;0.70;;;21.20;76.20;;;;;;5048748;28;20402;-80
2021/08/08 10:29:56;;;;;;;2.55;0.80;;;21.10;76.60;;;;;;5052171;28;20055;-79
2021/08/08 10:32:25;;;;;;;3.53;0.80;;;21.10;76.70;;;;;;5052162;28;20421;-80
2021/08/08 10:34:53;;;;;;;2.75;0.80;;;21.20;73.00;;;;;;5052925;28;20048;-80
2021/08/08 10:37:24;;;;;;;3.30;0.70;;;21.10;73.10;;;;;;5051910;28;20149;-79
2021/08/08 10:39:51;;;;;;;4.03;0.90;;;21.00;74.60;;;;;;5053134;28;20509;-79
2021/08/08 10:42:21;;;;;;;2.60;0.80;;;21.00;75.60;;;;;;5062459;28;20080;-80
2021/08/08 10:44:51;;;;;;;2.90;0.80;;;21.10;76.50;;;;;;5070490;28;20052;-76
2021/08/08 10:47:27;;;;;;;3.53;1.20;;;21.10;74.40;;;;;;5063875;28;20135;-78
2021/08/08 10:49:54;;;;;;;2.28;0.90;;;21.20;75.20;;;;;;5064199;28;20454;-77
2021/08/08 10:52:22;;;;;;;3.83;1.17;;;21.20;75.10;;;;;;5065761;28;20072;-78
2021/08/08 10:54:52;;;;;;;3.55;1.10;;;21.30;72.90;;;;;;5055602;28;20063;-80
2021/08/08 10:57:21;;;;;;;1.65;0.70;;;21.30;71.30;;;;;;5057381;28;20053;-76
2021/08/08 10:59:51;;;;;;;2.53;0.80;;;21.40;71.30;;;;;;5056590;28;20487;-79
2021/08/08 11:02:26;;;;;;;2.95;0.90;;;21.40;71.50;;;;;;5056384;28;20088;-78
2021/08/08 11:04:54;;;;;;;2.33;0.75;;;21.50;72.60;;;;;;5055534;28;20041;-79
2021/08/08 11:07:27;;;;;;;2.63;0.88;;;21.60;71.90;;;;;;5054857;28;20060;-79
2021/08/08 11:09:54;;;;;;;2.75;0.80;;;21.70;69.30;;;;;;5055141;28;20111;-80
2021/08/08 11:12:32;;;;;;;3.10;0.80;;;21.60;68.10;;;;;;5055059;28;20068;-76
2021/08/08 11:15:00;;;;;;;3.70;0.90;;;21.60;69.20;;;;;;5057413;28;20077;-76
2021/08/08 11:17:28;;;;;;;2.53;0.80;;;21.70;68.70;;;;;;5055291;28;20041;-79
2021/08/08 11:19:56;;;;;;;3.28;0.98;;;21.70;65.40;;;;;;5054166;28;20051;-79
2021/08/08 11:22:23;;;;;;;3.25;0.90;;;21.60;66.90;;;;;;5054120;28;20056;-79
2021/08/08 11:24:59;;;;;;;2.58;0.80;;;21.50;65.60;;;;;;5054902;28;20045;-80
2021/08/08 11:27:32;;;;;;;3.50;0.85;;;21.40;67.00;;;;;;5054690;28;20136;-78
2021/08/08 11:30:00;;;;;;;3.13;0.80;;;21.40;67.90;;;;;;5054628;28;20084;-78
2021/08/08 11:32:30;;;;;;;2.55;0.80;;;21.40;68.30;;;;;;5054311;28;20077;-79
2021/08/08 11:35:03;;;;;;;3.47;1.00;;;21.40;66.10;;;;;;5054598;28;20137;-78
2021/08/08 11:37:32;;;;;;;2.95;0.70;;;21.50;66.20;;;;;;5054781;28;20132;-80
2021/08/08 11:39:59;;;;;;;2.95;0.93;;;21.50;66.10;;;;;;5053572;28;20475;-78
2021/08/08 11:42:31;;;;;;;2.95;0.90;;;21.60;64.00;;;;;;5054149;28;20095;-79
2021/08/08 11:45:00;;;;;;;2.58;0.80;;;21.60;65.30;;;;;;5056383;28;20053;-80
2021/08/08 11:47:28;;;;;;;3.10;0.77;;;21.70;64.10;;;;;;5060037;28;20128;-80
2021/08/08 11:49:56;;;;;;;2.38;0.70;;;21.80;64.90;;;;;;5062296;28;20132;-79
2021/08/08 11:52:23;;;;;;;2.80;0.85;;;21.80;65.50;;;;;;5059242;28;20072;-81
2021/08/08 11:55:02;;;;;;;2.60;0.80;;;21.90;63.50;;;;;;5048612;28;20128;-78
2021/08/08 11:57:31;;;;;;;3.60;0.80;;;21.80;64.50;;;;;;5044781;28;20041;-78
2021/08/08 12:00:00;;;;;;;3.40;0.93;;;21.80;64.90;;;;;;5048663;28;20073;-78
2021/08/08 12:02:29;;;;;;;2.38;0.80;;;21.90;62.90;;;;;;5056509;28;20105;-78
2021/08/08 12:04:58;;;;;;;2.72;0.90;;;21.80;62.90;;;;;;5054757;28;20049;-76
2021/08/08 12:07:28;;;;;;;1.60;0.65;;;21.80;63.50;;;;;;5048888;28;20051;-80
2021/08/08 12:09:56;;;;;;;2.60;0.80;;;21.80;64.40;;;;;;5054839;28;20044;-79
2021/08/08 12:12:35;;;;;;;2.83;0.70;;;21.80;64.20;;;;;;5050140;28;20053;-80
2021/08/08 12:15:05;;;;;;;3.90;0.80;;;21.90;64.80;;;;;;5046624;28;20037;-79
2021/08/08 12:17:32;;;;;;;3.72;1.00;;;21.90;64.90;;;;;;5050682;28;20036;-80
2021/08/08 12:20:10;;;;;;;2.78;0.80;;;22.00;64.20;;;;;;5049329;28;20125;-80
2021/08/08 12:22:38;;;;;;;2.45;0.90;;;22.00;63.00;;;;;;5047762;28;20072;-78
2021/08/08 12:25:08;;;;;;;2.97;0.90;;;21.90;62.50;;;;;;5050393;28;20041;-79
2021/08/08 12:27:37;;;;;;;2.92;1.00;;;21.90;62.70;;;;;;5050876;28;20409;-77
2021/08/08 12:30:08;;;;;;;3.30;0.80;;;22.00;63.00;;;;;;5047811;28;20137;-80
2021/08/08 12:32:37;;;;;;;3.92;0.93;;;22.10;62.60;;;;;;5045393;28;20473;-80
2021/08/08 12:35:11;;;;;;;1.60;0.60;;;22.10;61.60;;;;;;5051407;28;20047;-80
2021/08/08 12:37:40;;;;;;;2.22;0.68;;;22.20;62.00;;;;;;5049998;28;20052;-78
2021/08/08 12:40:14;;;;;;;3.13;0.80;;;22.20;60.60;;;;;;5053093;28;20136;-81
2021/08/08 12:42:43;;;;;;;3.60;0.80;;;22.30;60.60;;;;;;5053143;28;20068;-79
2021/08/08 12:45:15;;;;;;;2.75;0.85;;;22.30;60.10;;;;;;5045443;28;20044;-78
2021/08/08 12:47:44;;;;;;;5.80;1.80;;;22.40;59.90;;;;;;5044383;28;20041;-77
2021/08/08 12:50:16;;;;;;;2.38;0.80;;;22.40;58.20;;;;;;5041259;28;20088;-78
2021/08/08 12:52:44;;;;;;;2.38;0.70;;;22.50;58.30;;;;;;5044356;28;20206;-78